Time;durP1;ratioP1;P1;durP2;ratioP2;P2;SDS_P1;SDS_P2;PMS_P1;PMS_P2;Temp;Humidity;BMP_temperature;BMP_pressure;BME280_temperature;BME280_humidity;BME280_pressure;Samples;Min_cycle;Max_cycle;Signal;HPM_P1;HPM_P2
2022/07/13 00:00:13;;;;;;;;;;;19.30;99.90;;;;;;5075270;28;19908;-67
2022/07/13 00:02:39;;;;;;;;;;;19.40;99.90;;;;;;5076787;28;19958;-67
2022/07/13 00:05:06;;;;;;;;;;;19.50;99.90;;;;;;5076702;28;19957;-67
2022/07/13 00:07:32;;;;;;;;;;;19.50;99.90;;;;;;5076642;28;19954;-67
2022/07/13 00:09:58;;;;;;;;;;;19.50;99.90;;;;;;5076674;28;20347;-67
2022/07/13 00:12:24;;;;;;;;;;;19.50;99.90;;;;;;5076502;28;19956;-67
2022/07/13 00:14:49;;;;;;;;;;;19.50;99.90;;;;;;5076279;28;19916;-68
2022/07/13 00:17:15;;;;;;;;;;;19.60;99.90;;;;;;5058380;28;20387;-67
2022/07/13 00:19:40;;;;;;;;;;;19.60;99.90;;;;;;5076190;28;19931;-67
2022/07/13 00:22:06;;;;;;;;;;;19.60;99.90;;;;;;5076358;28;19931;-67
2022/07/13 00:24:31;;;;;;;;;;;19.50;99.90;;;;;;5076364;28;19908;-67
2022/07/13 00:26:57;;;;;;;;;;;19.50;99.90;;;;;;5076014;28;20283;-67
2022/07/13 00:29:22;;;;;;;;;;;19.50;99.90;;;;;;5076012;28;19912;-67
2022/07/13 00:31:48;;;;;;;;;;;19.50;99.90;;;;;;5075871;28;19920;-67
2022/07/13 00:34:13;;;;;;;;;;;19.50;99.90;;;;;;5041356;28;19970;-67
2022/07/13 00:36:39;;;;;;;;;;;19.50;99.90;;;;;;5075856;28;19908;-67
2022/07/13 00:39:05;;;;;;;;;;;19.50;99.90;;;;;;5076078;28;19912;-67
2022/07/13 00:41:30;;;;;;;;;;;19.50;99.90;;;;;;5076064;28;19909;-67
2022/07/13 00:44:11;;;;;;;;;;;19.50;99.90;;;;;;5075724;28;20378;-67
2022/07/13 00:46:37;;;;;;;;;;;19.50;99.90;;;;;;5057815;28;19912;-67
2022/07/13 00:49:02;;;;;;;;;;;19.50;99.90;;;;;;5075927;28;19995;-67
2022/07/13 00:51:28;;;;;;;;;;;19.50;99.90;;;;;;5075544;28;19916;-67
2022/07/13 00:53:54;;;;;;;;;;;19.50;99.90;;;;;;5057958;28;19944;-67
2022/07/13 00:56:20;;;;;;;;;;;19.50;99.90;;;;;;5075791;28;19931;-67
2022/07/13 00:58:46;;;;;;;;;;;19.50;99.90;;;;;;5075447;28;20401;-67
2022/07/13 01:01:11;;;;;;;;;;;19.50;99.90;;;;;;5075432;28;19908;-67
2022/07/13 01:03:37;;;;;;;;;;;19.50;99.90;;;;;;5075364;28;19959;-67
2022/07/13 01:06:02;;;;;;;;;;;19.50;99.90;;;;;;5075320;28;19908;-67
2022/07/13 01:08:28;;;;;;;;;;;19.60;99.90;;;;;;5075500;28;19970;-67
2022/07/13 01:10:54;;;;;;;;;;;19.50;99.90;;;;;;5075217;28;20286;-67
2022/07/13 01:13:20;;;;;;;;;;;19.50;99.90;;;;;;5075428;28;20446;-67
2022/07/13 01:15:46;;;;;;;;;;;19.60;99.90;;;;;;5075116;28;19948;-67
2022/07/13 01:18:12;;;;;;;;;;;19.60;99.90;;;;;;5057508;28;19962;-67
2022/07/13 01:20:39;;;;;;;;;;;19.60;99.90;;;;;;5075296;28;19909;-67
2022/07/13 01:23:07;;;;;;;;;;;19.70;99.90;;;;;;5074951;28;19956;-68
2022/07/13 01:25:32;;;;;;;;;;;19.70;99.90;;;;;;5075174;28;20321;-67
2022/07/13 01:27:58;;;;;;;;;;;19.80;99.90;;;;;;5075097;28;19915;-67
2022/07/13 01:30:23;;;;;;;;;;;19.80;99.90;;;;;;5075071;28;19927;-67
2022/07/13 01:32:49;;;;;;;;;;;19.80;99.90;;;;;;5074670;28;20428;-67
2022/07/13 01:35:15;;;;;;;;;;;19.70;99.90;;;;;;5074744;28;20271;-67
2022/07/13 01:37:41;;;;;;;;;;;19.60;99.90;;;;;;5074722;28;19915;-67
2022/07/13 01:40:07;;;;;;;;;;;19.50;99.90;;;;;;5074647;28;19908;-67
2022/07/13 01:42:38;;;;;;;;;;;19.40;99.90;;;;;;5074819;28;20451;-67
2022/07/13 01:45:04;;;;;;;;;;;19.30;99.90;;;;;;5074530;28;20345;-67
2022/07/13 01:47:30;;;;;;;;;;;19.20;99.90;;;;;;5074736;28;19947;-67
2022/07/13 01:49:55;;;;;;;;;;;19.00;99.90;;;;;;5074695;28;20333;-67
2022/07/13 01:52:21;;;;;;;;;;;18.90;99.90;;;;;;5074232;28;19920;-67
2022/07/13 01:54:46;;;;;;;;;;;18.90;99.90;;;;;;5074610;28;19909;-67
2022/07/13 01:57:12;;;;;;;;;;;18.90;99.90;;;;;;5074354;28;20394;-67
2022/07/13 01:59:37;;;;;;;;;;;18.90;99.90;;;;;;5074502;28;19958;-67
2022/07/13 02:02:03;;;;;;;;;;;18.80;99.90;;;;;;5074263;28;19912;-67
2022/07/13 02:04:28;;;;;;;;;;;18.80;99.90;;;;;;5074198;28;20370;-67
2022/07/13 02:06:54;;;;;;;;;;;18.70;99.90;;;;;;5074119;28;19909;-67
2022/07/13 02:09:19;;;;;;;;;;;18.70;99.90;;;;;;5074363;28;19958;-67
2022/07/13 02:11:44;;;;;;;;;;;18.70;99.90;;;;;;5073936;28;20398;-67
2022/07/13 02:14:10;;;;;;;;;;;18.60;99.90;;;;;;5074018;28;19944;-67
2022/07/13 02:16:35;;;;;;;;;;;18.60;99.90;;;;;;5074242;28;19916;-67
2022/07/13 02:19:01;;;;;;;;;;;18.60;99.90;;;;;;5056139;28;19909;-67
2022/07/13 02:21:26;;;;;;;;;;;18.50;99.90;;;;;;5074157;28;19912;-67
2022/07/13 02:23:52;;;;;;;;;;;18.60;99.90;;;;;;5073867;28;20252;-67
2022/07/13 02:26:17;;;;;;;;;;;18.60;99.90;;;;;;5073750;28;20410;-67
2022/07/13 02:28:43;;;;;;;;;;;18.60;99.90;;;;;;5074059;28;19961;-67
2022/07/13 02:31:09;;;;;;;;;;;18.70;99.90;;;;;;5074031;28;19916;-67
2022/07/13 02:33:34;;;;;;;;;;;18.70;99.90;;;;;;5073958;28;19912;-67
2022/07/13 02:36:00;;;;;;;;;;;18.60;99.90;;;;;;5055931;28;19908;-67
2022/07/13 02:38:25;;;;;;;;;;;18.60;99.90;;;;;;5073963;28;19916;-67
2022/07/13 02:40:51;;;;;;;;;;;18.50;99.90;;;;;;5073909;28;19966;-67
2022/07/13 02:43:16;;;;;;;;;;;18.60;99.90;;;;;;5073881;28;20302;-67
2022/07/13 02:45:42;;;;;;;;;;;18.50;99.90;;;;;;5073931;28;20009;-67
2022/07/13 02:48:07;;;;;;;;;;;18.50;99.90;;;;;;5073594;28;20481;-67
2022/07/13 02:50:33;;;;;;;;;;;18.50;99.90;;;;;;5073598;28;20007;-67
2022/07/13 02:52:58;;;;;;;;;;;18.50;99.90;;;;;;5073344;28;19920;-67
2022/07/13 02:55:24;;;;;;;;;;;18.50;99.90;;;;;;5073770;28;19962;-67
2022/07/13 02:57:49;;;;;;;;;;;18.50;99.90;;;;;;5073763;28;19909;-67
2022/07/13 03:00:15;;;;;;;;;;;18.50;99.90;;;;;;5073732;28;19974;-67
2022/07/13 03:02:40;;;;;;;;;;;18.50;99.90;;;;;;5073462;28;19908;-67
2022/07/13 03:05:07;;;;;;;;;;;18.50;99.90;;;;;;5055428;28;19915;-67
2022/07/13 03:07:33;;;;;;;;;;;18.40;99.90;;;;;;5073670;28;19908;-67
2022/07/13 03:09:58;;;;;;;;;;;18.40;99.90;;;;;;5073694;28;19931;-67
2022/07/13 03:12:24;;;;;;;;;;;18.40;99.90;;;;;;5073436;28;19916;-67
2022/07/13 03:14:49;;;;;;;;;;;18.40;99.90;;;;;;5073380;28;19990;-67
2022/07/13 03:17:15;;;;;;;;;;;18.40;99.90;;;;;;5073321;28;19916;-67
2022/07/13 03:19:40;;;;;;;;;;;18.50;99.90;;;;;;5073588;28;19908;-67
2022/07/13 03:22:06;;;;;;;;;;;18.50;99.90;;;;;;5073539;28;19908;-67
2022/07/13 03:24:31;;;;;;;;;;;18.50;99.90;;;;;;5073201;28;19908;-67
2022/07/13 03:26:57;;;;;;;;;;;18.60;99.90;;;;;;5073285;28;19916;-67
2022/07/13 03:29:22;;;;;;;;;;;18.50;99.90;;;;;;5073490;28;19909;-67
2022/07/13 03:31:48;;;;;;;;;;;18.60;99.90;;;;;;5073058;28;19913;-67
2022/07/13 03:34:13;;;;;;;;;;;18.60;99.90;;;;;;5073816;28;19912;-67
2022/07/13 03:36:39;;;;;;;;;;;18.60;99.90;;;;;;5077289;28;19908;-67
2022/07/13 03:39:04;;;;;;;;;;;18.60;99.90;;;;;;5076945;28;20371;-67
2022/07/13 03:41:30;;;;;;;;;;;18.60;99.90;;;;;;5076914;28;19909;-67
2022/07/13 03:43:55;;;;;;;;;;;18.60;99.90;;;;;;5077127;28;19909;-67
2022/07/13 03:46:21;;;;;;;;;;;18.60;99.90;;;;;;5076844;28;20321;-67
2022/07/13 03:48:46;;;;;;;;;;;18.60;99.90;;;;;;5076763;28;19916;-67
2022/07/13 03:51:12;;;;;;;;;;;18.50;99.90;;;;;;5076534;28;20306;-67
2022/07/13 03:53:37;;;;;;;;;;;18.50;99.90;;;;;;5076615;28;19908;-67
2022/07/13 03:56:03;;;;;;;;;;;18.60;99.90;;;;;;5077014;28;19908;-67
2022/07/13 03:58:28;;;;;;;;;;;18.60;99.90;;;;;;5076516;28;20393;-67
2022/07/13 04:00:55;;;;;;;;;;;18.60;99.90;;;;;;5076809;28;19914;-67
2022/07/13 04:03:20;;;;;;;;;;;18.60;99.90;;;;;;5076758;28;20371;-67
2022/07/13 04:05:46;;;;;;;;;;;18.70;99.90;;;;;;5076731;28;19954;-67
2022/07/13 04:08:11;;;;;;;;;;;18.70;99.90;;;;;;5076371;28;19991;-67
2022/07/13 04:10:37;;;;;;;;;;;18.80;99.90;;;;;;5076606;28;19991;-67
2022/07/13 04:13:02;;;;;;;;;;;18.80;99.90;;;;;;5058489;28;20367;-67
2022/07/13 04:15:28;;;;;;;;;;;18.80;99.90;;;;;;5076509;28;19913;-67
2022/07/13 04:17:53;;;;;;;;;;;18.80;99.90;;;;;;5076497;28;20050;-67
2022/07/13 04:20:19;;;;;;;;;;;18.90;99.90;;;;;;5076204;28;19909;-67
2022/07/13 04:22:44;;;;;;;;;;;19.00;99.90;;;;;;5076057;28;19999;-67
2022/07/13 04:25:10;;;;;;;;;;;19.10;99.90;;;;;;5076098;28;19913;-67
2022/07/13 04:27:35;;;;;;;;;;;19.00;99.90;;;;;;5076385;28;19908;-67
2022/07/13 04:30:02;;;;;;;;;;;19.20;99.90;;;;;;5076274;28;20267;-67
2022/07/13 04:32:27;;;;;;;;;;;19.20;99.90;;;;;;5076122;28;19919;-67
2022/07/13 04:34:53;;;;;;;;;;;19.30;99.90;;;;;;5075929;28;20366;-67
2022/07/13 04:37:18;;;;;;;;;;;19.40;99.90;;;;;;5076139;28;19912;-67
2022/07/13 04:39:44;;;;;;;;;;;19.50;99.90;;;;;;5076093;28;19908;-67
2022/07/13 04:42:09;;;;;;;;;;;19.50;99.90;;;;;;5076065;28;20363;-67
2022/07/13 04:44:35;;;;;;;;;;;19.50;99.90;;;;;;5076002;28;19908;-67
2022/07/13 04:47:00;;;;;;;;;;;19.60;99.90;;;;;;5075648;28;20354;-67
2022/07/13 04:49:26;;;;;;;;;;;19.70;99.90;;;;;;5075943;28;19916;-67
2022/07/13 04:51:51;;;;;;;;;;;19.80;99.90;;;;;;5075364;28;19920;-67
2022/07/13 04:54:18;;;;;;;;;;;19.90;99.90;;;;;;5075809;28;19999;-68
2022/07/13 04:56:44;;;;;;;;;;;20.00;99.90;;;;;;5075809;28;19912;-68
2022/07/13 04:59:10;;;;;;;;;;;20.10;99.90;;;;;;5075497;28;19918;-67
2022/07/13 05:01:35;;;;;;;;;;;20.30;99.90;;;;;;5075767;28;19913;-67
2022/07/13 05:04:02;;;;;;;;;;;20.40;99.90;;;;;;5075466;28;19923;-68
2022/07/13 05:06:27;;;;;;;;;;;20.50;99.90;;;;;;5075597;28;20386;-68
2022/07/13 05:08:53;;;;;;;;;;;20.50;99.90;;;;;;5075515;28;19912;-68
2022/07/13 05:11:18;;;;;;;;;;;20.40;99.90;;;;;;5075502;28;20278;-68
2022/07/13 05:13:44;;;;;;;;;;;20.50;99.90;;;;;;5075368;28;20378;-67
2022/07/13 05:16:10;;;;;;;;;;;20.50;99.90;;;;;;5075351;28;19913;-67
2022/07/13 05:18:35;;;;;;;;;;;20.50;99.90;;;;;;5075306;28;19962;-68
2022/07/13 05:21:01;;;;;;;;;;;20.50;99.90;;;;;;5075293;28;19933;-68
2022/07/13 05:23:26;;;;;;;;;;;20.50;99.90;;;;;;5075242;28;19908;-68
2022/07/13 05:25:52;;;;;;;;;;;20.60;99.90;;;;;;5075229;28;19909;-68
2022/07/13 05:28:17;;;;;;;;;;;20.60;99.90;;;;;;5075105;28;19908;-68
2022/07/13 05:30:43;;;;;;;;;;;20.70;99.90;;;;;;5075129;28;19912;-68
2022/07/13 05:33:08;;;;;;;;;;;20.70;99.90;;;;;;5074973;28;20363;-68
2022/07/13 05:35:34;;;;;;;;;;;20.80;99.90;;;;;;5074998;28;19909;-68
2022/07/13 05:37:59;;;;;;;;;;;20.90;99.90;;;;;;5074914;28;19916;-68
2022/07/13 05:40:25;;;;;;;;;;;21.00;99.90;;;;;;5074929;28;19908;-67
2022/07/13 05:42:51;;;;;;;;;;;21.00;99.90;;;;;;5074594;28;19913;-68
2022/07/13 05:45:17;;;;;;;;;;;21.10;99.90;;;;;;5074771;28;19931;-68
2022/07/13 05:47:45;;;;;;;;;;;21.20;99.90;;;;;;5074489;28;20413;-68
2022/07/13 05:50:11;;;;;;;;;;;21.30;99.90;;;;;;5074685;28;19915;-68
2022/07/13 05:52:37;;;;;;;;;;;21.40;99.90;;;;;;5074088;28;19943;-68
2022/07/13 05:55:02;;;;;;;;;;;21.40;99.90;;;;;;5074206;28;20371;-67
2022/07/13 05:57:28;;;;;;;;;;;21.40;99.90;;;;;;5073591;28;20058;-67
2022/07/13 05:59:53;;;;;;;;;;;21.60;99.90;;;;;;5074489;28;19913;-68
2022/07/13 06:02:18;;;;;;;;;;;21.70;99.90;;;;;;5074217;28;19908;-68
2022/07/13 06:04:44;;;;;;;;;;;22.00;99.90;;;;;;5074418;28;19909;-68
2022/07/13 06:07:09;;;;;;;;;;;22.20;99.90;;;;;;5074295;28;19912;-68
2022/07/13 06:09:35;;;;;;;;;;;22.40;99.90;;;;;;5056090;28;19954;-68
2022/07/13 06:12:00;;;;;;;;;;;22.60;99.90;;;;;;5073946;28;19913;-68
2022/07/13 06:14:26;;;;;;;;;;;22.90;99.90;;;;;;5074186;28;19908;-66
2022/07/13 06:16:51;;;;;;;;;;;23.50;99.90;;;;;;5073881;28;19914;-66
2022/07/13 06:19:17;;;;;;;;;;;24.00;99.90;;;;;;5070935;28;19913;-66
2022/07/13 06:21:42;;;;;;;;;;;24.20;99.90;;;;;;5073849;28;19908;-66
2022/07/13 06:24:08;;;;;;;;;;;24.50;99.90;;;;;;5055757;28;19909;-66
2022/07/13 06:26:33;;;;;;;;;;;24.60;99.90;;;;;;5073898;28;20424;-66
2022/07/13 06:28:59;;;;;;;;;;;24.40;99.90;;;;;;5073866;28;19997;-66
2022/07/13 06:31:24;;;;;;;;;;;24.20;99.90;;;;;;5073452;28;19908;-66
2022/07/13 06:33:52;;;;;;;;;;;24.00;99.90;;;;;;5073532;28;19920;-66
2022/07/13 06:36:18;;;;;;;;;;;23.80;99.90;;;;;;5073650;28;19916;-67
2022/07/13 06:38:44;;;;;;;;;;;23.70;99.90;;;;;;5073824;28;20418;-66
2022/07/13 06:41:09;;;;;;;;;;;23.70;99.90;;;;;;5073356;28;20012;-66
2022/07/13 06:43:35;;;;;;;;;;;23.70;99.90;;;;;;5055313;28;19909;-66
2022/07/13 06:46:01;;;;;;;;;;;23.70;99.90;;;;;;5073837;28;20286;-66
2022/07/13 06:48:26;;;;;;;;;;;23.90;99.90;;;;;;5040712;28;19913;-66
2022/07/13 06:50:52;;;;;;;;;;;24.10;99.90;;;;;;5047142;28;19975;-66
2022/07/13 06:53:20;;;;;;;;;;;24.50;99.90;;;;;;5037974;28;19929;-66
2022/07/13 06:55:46;;;;;;;;;;;24.90;99.90;;;;;;5038454;28;20267;-66
2022/07/13 06:58:11;;;;;;;;;;;25.10;99.90;;;;;;5041739;28;19920;-66
2022/07/13 07:00:37;;;;;;;;;;;25.10;99.90;;;;;;5053304;28;20416;-66
2022/07/13 07:03:02;;;;;;;;;;;25.30;99.90;;;;;;5050849;28;19966;-66
2022/07/13 07:05:28;;;;;;;;;;;25.20;99.90;;;;;;5033791;28;19914;-66
2022/07/13 07:07:53;;;;;;;;;;;25.20;99.90;;;;;;5050510;28;19917;-66
2022/07/13 07:10:19;;;;;;;;;;;25.00;99.90;;;;;;5039263;28;19909;-66
2022/07/13 07:12:44;;;;;;;;;;;24.90;99.90;;;;;;5056689;28;20263;-66
2022/07/13 07:15:10;;;;;;;;;;;24.80;99.90;;;;;;5056249;28;19955;-66
2022/07/13 07:17:43;;;;;;;;;;;24.80;99.90;;;;;;5042606;28;20398;-66
2022/07/13 07:20:09;;;;;;;;;;;24.90;99.90;;;;;;5057231;28;19909;-66
2022/07/13 07:22:34;;;;;;;;;;;24.90;99.90;;;;;;5057196;28;19916;-66
2022/07/13 07:25:00;;;;;;;;;;;24.90;99.90;;;;;;5055295;28;19917;-66
2022/07/13 07:27:25;;;;;;;;;;;24.90;99.90;;;;;;5045235;28;19963;-66
2022/07/13 07:29:51;;;;;;;;;;;25.00;99.90;;;;;;5054857;28;20351;-66
2022/07/13 07:32:16;;;;;;;;;;;25.10;99.90;;;;;;5052248;28;19960;-66
2022/07/13 07:34:42;;;;;;;;;;;25.10;99.90;;;;;;5047423;28;19944;-66
2022/07/13 07:37:08;;;;;;;;;;;25.20;99.90;;;;;;5039811;28;19939;-66
2022/07/13 07:39:35;;;;;;;;;;;25.40;99.90;;;;;;5051909;28;19917;-66
2022/07/13 07:42:00;;;;;;;;;;;25.70;99.90;;;;;;5042188;28;19920;-66
2022/07/13 07:44:26;;;;;;;;;;;25.80;99.90;;;;;;5056011;28;19909;-65
2022/07/13 07:46:51;;;;;;;;;;;25.80;99.90;;;;;;5054793;28;19912;-65
2022/07/13 07:49:17;;;;;;;;;;;25.90;99.90;;;;;;5054642;28;19913;-65
2022/07/13 07:51:43;;;;;;;;;;;26.00;99.90;;;;;;5055839;28;19971;-65
2022/07/13 07:54:11;;;;;;;;;;;26.30;99.90;;;;;;5048292;28;20406;-65
2022/07/13 07:56:36;;;;;;;;;;;26.20;99.90;;;;;;5057324;28;19932;-66
2022/07/13 07:59:02;;;;;;;;;;;26.50;99.90;;;;;;5065377;28;19912;-66
2022/07/13 08:01:28;;;;;;;;;;;26.60;99.90;;;;;;5056733;28;19909;-66
2022/07/13 08:03:54;;;;;;;;;;;26.60;99.90;;;;;;5050602;28;19913;-66
2022/07/13 08:06:20;;;;;;;;;;;26.50;99.90;;;;;;5043840;28;19959;-66
2022/07/13 08:08:45;;;;;;;;;;;26.70;99.90;;;;;;5044698;28;19957;-65
2022/07/13 08:11:16;;;;;;;;;;;26.90;99.90;;;;;;5054454;28;19967;-66
2022/07/13 08:13:42;;;;;;;;;;;27.20;99.90;;;;;;5047212;28;19912;-66
2022/07/13 08:16:10;;;;;;;;;;;27.90;99.90;;;;;;5049402;28;20011;-67
2022/07/13 08:18:36;;;;;;;;;;;28.10;99.40;;;;;;5020308;28;19909;-66
2022/07/13 08:21:02;;;;;;;;;;;28.10;98.50;;;;;;5037934;28;20323;-66
2022/07/13 08:23:58;;;;;;;;;;;28.10;98.60;;;;;;5039593;28;20299;-66
2022/07/13 08:26:13;;;;;;;;;;;27.90;97.60;;;;;;5043962;28;19913;-67
2022/07/13 08:28:39;;;;;;;;;;;28.10;97.50;;;;;;5052468;28;20397;-66
2022/07/13 08:31:05;;;;;;;;;;;28.10;96.80;;;;;;5045067;28;19913;-71
2022/07/13 08:39:01;;;;;;;;;;;28.10;94.90;;;;;;5041573;28;19910;-65
2022/07/13 08:41:28;;;;;;;;;;;28.00;94.80;;;;;;5035647;28;19920;-66
2022/07/13 08:43:54;;;;;;;;;;;28.00;95.00;;;;;;5045794;28;19967;-66
2022/07/13 08:46:21;;;;;;;;;;;28.10;94.00;;;;;;5039396;28;19914;-65
2022/07/13 08:48:49;;;;;;;;;;;28.10;93.30;;;;;;5054196;28;20429;-69
2022/07/13 08:51:16;;;;;;;;;;;28.30;92.70;;;;;;5037786;28;20402;-66
2022/07/13 08:53:43;;;;;;;;;;;28.60;91.90;;;;;;5035048;28;19917;-68
2022/07/13 08:56:08;;;;;;;;;;;28.50;90.70;;;;;;5055081;28;19958;-66
2022/07/13 08:58:35;;;;;;;;;;;28.90;90.20;;;;;;5055330;28;20334;-65
2022/07/13 09:01:01;;;;;;;;;;;29.10;87.50;;;;;;5054922;28;19995;-65
2022/07/13 09:03:26;;;;;;;;;;;29.20;87.00;;;;;;5055078;28;19951;-66
2022/07/13 09:05:52;;;;;;;;;;;29.00;86.10;;;;;;5054150;28;20379;-67
2022/07/13 09:08:18;;;;;;;;;;;29.60;87.70;;;;;;5043741;28;19913;-66
2022/07/13 09:11:00;;;;;;;;;;;29.90;84.00;;;;;;5037443;28;19913;-66
2022/07/13 09:13:45;;;;;;;;;;;30.30;83.70;;;;;;5038466;28;19925;-66
2022/07/13 09:16:27;;;;;;;;;;;29.90;81.60;;;;;;5054577;28;19913;-65
2022/07/13 09:18:54;;;;;;;;;;;29.20;81.30;;;;;;5051066;28;19917;-65
2022/07/13 09:21:20;;;;;;;;;;;29.00;82.90;;;;;;5053029;28;19972;-68
2022/07/13 09:23:47;;;;;;;;;;;29.30;84.40;;;;;;5035847;28;19909;-66
2022/07/13 09:26:13;;;;;;;;;;;29.90;81.60;;;;;;5031960;28;19913;-66
2022/07/13 09:28:41;;;;;;;;;;;29.50;80.50;;;;;;5056685;28;19915;-66
2022/07/13 09:31:07;;;;;;;;;;;29.10;82.10;;;;;;5050377;28;19913;-65
2022/07/13 09:33:33;;;;;;;;;;;29.50;82.20;;;;;;5047695;28;19924;-66
2022/07/13 09:36:07;;;;;;;;;;;30.90;80.80;;;;;;5053450;28;19919;-66
2022/07/13 09:38:34;;;;;;;;;;;31.80;77.60;;;;;;5043798;28;19962;-66
2022/07/13 09:41:16;;;;;;;;;;;31.20;76.60;;;;;;5054500;28;19911;-65
2022/07/13 09:47:03;;;;;;;;;;;30.00;79.10;;;;;;5042229;28;20407;-64
2022/07/13 09:49:34;;;;;;;;;;;29.90;79.10;;;;;;5053608;28;20363;-64
2022/07/13 09:52:00;;;;;;;;;;;30.00;79.10;;;;;;5033808;28;19921;-66
2022/07/13 09:54:27;;;;;;;;;;;29.80;79.60;;;;;;5034206;28;20391;-66
2022/07/13 09:56:55;;;;;;;;;;;29.60;81.40;;;;;;5034616;28;19917;-66
2022/07/13 09:59:21;;;;;;;;;;;29.50;80.50;;;;;;5035511;28;19920;-66
2022/07/13 10:01:47;;;;;;;;;;;28.60;81.40;;;;;;5047538;28;19913;-66
2022/07/13 10:04:14;;;;;;;;;;;28.70;81.50;;;;;;5041959;28;19913;-66
2022/07/13 10:06:39;;;;;;;;;;;28.60;81.90;;;;;;5053038;28;19912;-66
2022/07/13 10:09:05;;;;;;;;;;;28.50;82.00;;;;;;5054072;28;19912;-65
2022/07/13 10:11:30;;;;;;;;;;;28.90;82.30;;;;;;5050227;28;19912;-64
2022/07/13 10:13:57;;;;;;;;;;;29.00;81.50;;;;;;5043658;28;19971;-65
2022/07/13 10:16:23;;;;;;;;;;;29.10;81.60;;;;;;5047480;28;20007;-65
2022/07/13 10:18:50;;;;;;;;;;;29.40;79.80;;;;;;5049791;28;19978;-65
2022/07/13 10:21:18;;;;;;;;;;;29.50;80.50;;;;;;5042795;28;19913;-64
2022/07/13 10:23:44;;;;;;;;;;;30.10;79.30;;;;;;5035090;28;20431;-65
2022/07/13 10:26:17;;;;;;;;;;;29.80;78.20;;;;;;5045526;28;19971;-65
2022/07/13 10:28:59;;;;;;;;;;;29.70;78.90;;;;;;5038466;28;19913;-65
2022/07/13 10:31:25;;;;;;;;;;;29.80;78.90;;;;;;5042750;28;19913;-65
2022/07/13 10:33:51;;;;;;;;;;;29.60;79.70;;;;;;5034657;28;19970;-66
2022/07/13 10:36:36;;;;;;;;;;;29.40;80.00;;;;;;5033525;28;19913;-66
2022/07/13 10:39:17;;;;;;;;;;;29.40;80.70;;;;;;5034306;28;20044;-65
2022/07/13 10:41:59;;;;;;;;;;;29.60;80.80;;;;;;5033292;28;20003;-66
2022/07/13 10:44:33;;;;;;;;;;;29.60;80.20;;;;;;5045705;28;19924;-65
2022/07/13 10:46:59;;;;;;;;;;;29.50;79.40;;;;;;5015692;28;20052;-65
2022/07/13 10:49:36;;;;;;;;;;;29.30;80.80;;;;;;5045138;28;20127;-65
2022/07/13 10:52:22;;;;;;;;;;;29.50;80.10;;;;;;5036558;28;19921;-65
2022/07/13 10:57:44;;;;;;;;;;;30.50;79.60;;;;;;5090560;27;19917;-67
2022/07/13 11:00:28;;;;;;;;;;;31.00;78.30;;;;;;5091061;28;19921;-67
2022/07/13 11:03:01;;;;;;;;;;;31.10;78.10;;;;;;5079997;28;20367;-68
2022/07/13 11:05:29;;;;;;;;;;;31.00;76.60;;;;;;5090122;28;19971;-67
2022/07/13 11:07:55;;;;;;;;;;;31.30;76.70;;;;;;5070791;28;20405;-67
2022/07/13 11:10:25;;;;;;;;;;;31.40;76.60;;;;;;5088610;28;19920;-65
2022/07/13 11:12:55;;;;;;;;;;;31.70;76.90;;;;;;5087000;28;19931;-64
2022/07/13 11:15:21;;;;;;;;;;;31.90;75.20;;;;;;5070405;28;19913;-67
2022/07/13 11:18:07;;;;;;;;;;;31.40;75.10;;;;;;5084912;28;19915;-67
2022/07/13 11:20:36;;;;;;;;;;;31.10;76.80;;;;;;5090164;28;20450;-67
2022/07/13 11:25:50;;;;;;;;;;;30.50;76.00;;;;;;5112416;28;19920;-68
2022/07/13 11:28:33;;;;;;;;;;;30.40;77.80;;;;;;5082037;28;19977;-68
2022/07/13 11:31:02;;;;;;;;;;;30.70;77.40;;;;;;5073525;28;19913;-67
2022/07/13 11:33:27;;;;;;;;;;;30.70;77.20;;;;;;5084410;28;20429;-67
2022/07/13 11:35:53;;;;;;;;;;;31.10;76.90;;;;;;5080118;28;19924;-67
2022/07/13 11:38:20;;;;;;;;;;;31.50;74.90;;;;;;5087417;28;19944;-67
2022/07/13 11:40:46;;;;;;;;;;;31.30;73.90;;;;;;5078977;28;19931;-67
2022/07/13 11:43:12;;;;;;;;;;;30.60;75.30;;;;;;5072100;28;19920;-67
2022/07/13 11:45:39;;;;;;;;;;;30.70;76.30;;;;;;5078624;28;19908;-68
2022/07/13 11:48:05;;;;;;;;;;;30.20;77.00;;;;;;5107193;28;19916;-66
2022/07/13 11:50:48;;;;;;;;;;;30.40;77.40;;;;;;5107341;28;19912;-67
2022/07/13 11:53:22;;;;;;;;;;;30.40;77.90;;;;;;5084885;28;20264;-66
2022/07/13 11:55:47;;;;;;;;;;;30.20;77.20;;;;;;5076565;28;19974;-66
2022/07/13 11:58:31;;;;;;;;;;;30.60;77.50;;;;;;5070961;28;19917;-67
2022/07/13 12:00:56;;;;;;;;;;;31.10;78.10;;;;;;5071509;28;19912;-66
2022/07/13 12:03:30;;;;;;;;;;;30.80;76.20;;;;;;5072309;28;19912;-67
2022/07/13 12:05:59;;;;;;;;;;;30.70;76.50;;;;;;5114651;27;19912;-66
2022/07/13 12:08:25;;;;;;;;;;;30.40;75.90;;;;;;5067915;28;20003;-67
2022/07/13 12:10:51;;;;;;;;;;;30.50;77.20;;;;;;5067097;28;20027;-66
2022/07/13 12:13:17;;;;;;;;;;;30.70;77.90;;;;;;5068484;28;19920;-67
2022/07/13 12:15:43;;;;;;;;;;;30.50;77.60;;;;;;5075882;28;19912;-66
2022/07/13 12:18:10;;;;;;;;;;;30.50;77.60;;;;;;5076050;28;19916;-66
2022/07/13 12:20:37;;;;;;;;;;;30.30;77.80;;;;;;5075742;28;20377;-67
2022/07/13 12:23:04;;;;;;;;;;;30.40;77.90;;;;;;5080512;28;19940;-66
2022/07/13 12:25:32;;;;;;;;;;;30.70;77.40;;;;;;5081823;28;20381;-67
2022/07/13 12:27:59;;;;;;;;;;;31.20;76.20;;;;;;5075834;28;20410;-66
2022/07/13 12:30:24;;;;;;;;;;;30.70;75.50;;;;;;5075763;28;20289;-66
2022/07/13 12:33:06;;;;;;;;;;;30.70;76.60;;;;;;5073736;28;19913;-65
2022/07/13 12:35:35;;;;;;;;;;;30.60;76.50;;;;;;5063450;28;20371;-65
2022/07/13 12:38:03;;;;;;;;;;;30.20;76.60;;;;;;5065089;28;20054;-67
2022/07/13 12:43:20;;;;;;;;;;;30.00;77.90;;;;;;5066210;28;20385;-66
2022/07/13 12:45:47;;;;;;;;;;;30.30;78.30;;;;;;5070637;28;19912;-67
2022/07/13 12:48:13;;;;;;;;;;;30.70;77.70;;;;;;5070925;28;20259;-67
2022/07/13 12:50:39;;;;;;;;;;;31.30;75.00;;;;;;5068560;28;19917;-67
2022/07/13 12:53:04;;;;;;;;;;;30.90;74.60;;;;;;5066901;28;19913;-68
2022/07/13 12:55:30;;;;;;;;;;;31.40;74.50;;;;;;5055409;28;19932;-67
2022/07/13 12:57:55;;;;;;;;;;;31.50;73.40;;;;;;5064793;28;20315;-66
2022/07/13 13:00:22;;;;;;;;;;;30.90;73.10;;;;;;5070591;28;20308;-65
2022/07/13 13:02:47;;;;;;;;;;;30.80;73.20;;;;;;5070362;28;19962;-67
2022/07/13 13:05:13;;;;;;;;;;;30.60;73.10;;;;;;5069601;28;19908;-66
2022/07/13 13:07:39;;;;;;;;;;;30.70;73.60;;;;;;5062656;28;19924;-66
2022/07/13 13:10:05;;;;;;;;;;;30.60;72.90;;;;;;5051578;28;19916;-66
2022/07/13 13:12:31;;;;;;;;;;;30.70;72.70;;;;;;5068427;28;19935;-66
2022/07/13 13:14:57;;;;;;;;;;;30.50;73.50;;;;;;5065663;28;19913;-65
2022/07/13 13:17:23;;;;;;;;;;;30.60;76.00;;;;;;5052856;28;19921;-66
2022/07/13 13:19:48;;;;;;;;;;;30.70;77.10;;;;;;5070087;28;19963;-66
2022/07/13 13:22:14;;;;;;;;;;;30.40;74.90;;;;;;5067716;28;19956;-66
2022/07/13 13:24:39;;;;;;;;;;;30.30;75.70;;;;;;5051978;28;19956;-66
2022/07/13 13:27:05;;;;;;;;;;;30.40;73.90;;;;;;5057536;28;19913;-66
2022/07/13 13:32:17;;;;;;;;;;;30.60;72.10;;;;;;5053996;28;19929;-66
2022/07/13 13:34:43;;;;;;;;;;;30.30;71.60;;;;;;5066690;28;20291;-66
2022/07/13 13:37:08;;;;;;;;;;;30.20;73.60;;;;;;5050860;28;19917;-65
2022/07/13 13:39:34;;;;;;;;;;;30.30;74.10;;;;;;5085710;28;20356;-65
2022/07/13 13:41:59;;;;;;;;;;;30.90;71.60;;;;;;5076269;28;19920;-65
2022/07/13 13:44:25;;;;;;;;;;;30.70;70.50;;;;;;5078105;28;19912;-66
2022/07/13 13:46:51;;;;;;;;;;;30.60;69.90;;;;;;5090184;28;20283;-65
2022/07/13 13:49:17;;;;;;;;;;;29.90;69.80;;;;;;5083612;28;19970;-65
2022/07/13 13:51:43;;;;;;;;;;;29.60;72.10;;;;;;5070620;28;20420;-65
2022/07/13 13:54:08;;;;;;;;;;;29.70;72.10;;;;;;5064632;28;19913;-66
2022/07/13 13:56:34;;;;;;;;;;;29.80;72.70;;;;;;5058366;28;19952;-65
2022/07/13 13:58:59;;;;;;;;;;;30.10;73.80;;;;;;5069587;28;20401;-65
2022/07/13 14:01:25;;;;;;;;;;;30.10;71.50;;;;;;5074204;28;19912;-65
2022/07/13 14:03:50;;;;;;;;;;;30.00;73.50;;;;;;5074373;28;19913;-66
2022/07/13 14:06:16;;;;;;;;;;;30.00;73.80;;;;;;5062394;28;20394;-65
2022/07/13 14:08:43;;;;;;;;;;;29.90;74.30;;;;;;5070741;28;19919;-65
2022/07/13 14:11:13;;;;;;;;;;;30.20;72.10;;;;;;5060677;28;19923;-65
2022/07/13 14:13:39;;;;;;;;;;;30.50;73.40;;;;;;5075360;28;19917;-65
2022/07/13 14:16:05;;;;;;;;;;;30.80;73.80;;;;;;5075275;28;20035;-66
2022/07/13 14:18:31;;;;;;;;;;;31.20;72.80;;;;;;5069573;28;20037;-66
2022/07/13 14:20:57;;;;;;;;;;;31.10;73.40;;;;;;5063229;28;19916;-66
2022/07/13 14:23:23;;;;;;;;;;;31.00;71.70;;;;;;5074875;28;19908;-66
2022/07/13 14:25:48;;;;;;;;;;;30.60;68.90;;;;;;5062871;28;19919;-65
2022/07/13 14:28:15;;;;;;;;;;;30.20;70.40;;;;;;5070544;28;19916;-66
2022/07/13 14:30:40;;;;;;;;;;;29.90;71.50;;;;;;5055800;28;20356;-65
2022/07/13 14:33:06;;;;;;;;;;;29.60;71.80;;;;;;5072837;28;20006;-65